createdAt,value
2018-11-03T00:00:15.627Z,94.00
2018-11-03T00:02:48.364Z,94.00
2018-11-03T00:05:18.086Z,94.00
2018-11-03T00:07:47.538Z,94.10
2018-11-03T00:10:16.820Z,94.10
2018-11-03T00:12:47.065Z,94.10
2018-11-03T00:15:15.999Z,94.10
2018-11-03T00:17:44.971Z,94.00
2018-11-03T00:20:14.261Z,94.00
2018-11-03T00:22:43.193Z,93.90
2018-11-03T00:25:14.171Z,93.90
2018-11-03T00:27:43.349Z,93.90
2018-11-03T00:30:14.046Z,94.00
2018-11-03T00:32:43.337Z,93.90
2018-11-03T00:35:13.248Z,93.80
2018-11-03T00:37:42.209Z,93.80
2018-11-03T00:40:16.679Z,93.90
2018-11-03T00:42:45.363Z,93.80
2018-11-03T00:45:14.768Z,93.80
2018-11-03T00:47:44.327Z,93.80
2018-11-03T00:50:15.312Z,93.70
2018-11-03T00:52:44.237Z,93.80
2018-11-03T00:55:13.168Z,93.60
2018-11-03T00:57:42.176Z,93.70
2018-11-03T01:00:14.463Z,93.70
2018-11-03T01:02:44.991Z,93.60
2018-11-03T01:05:14.876Z,93.50
2018-11-03T01:07:44.221Z,93.50
2018-11-03T01:10:12.956Z,93.40
2018-11-03T01:12:43.057Z,93.30
2018-11-03T01:15:14.345Z,93.20
2018-11-03T01:17:43.145Z,93.60
2018-11-03T01:20:14.918Z,93.20
2018-11-03T01:22:44.384Z,93.20
2018-11-03T01:25:13.300Z,93.10
2018-11-03T01:27:42.725Z,93.20
2018-11-03T01:30:15.233Z,93.20
2018-11-03T01:32:44.005Z,93.10
2018-11-03T01:35:12.383Z,93.10
2018-11-03T01:37:42.807Z,93.20
2018-11-03T01:40:12.882Z,93.20
2018-11-03T01:42:41.373Z,93.20
2018-11-03T01:45:09.861Z,93.20
2018-11-03T01:47:39.372Z,93.10
2018-11-03T01:50:10.607Z,93.10
2018-11-03T01:52:39.913Z,93.10
2018-11-03T01:55:09.585Z,93.00
2018-11-03T01:57:38.793Z,92.80
2018-11-03T02:00:08.767Z,92.80
2018-11-03T02:02:38.090Z,92.90
2018-11-03T02:05:07.320Z,92.90
2018-11-03T02:07:35.891Z,92.80
2018-11-03T02:10:04.733Z,93.10
2018-11-03T02:12:33.918Z,93.00
2018-11-03T02:15:02.403Z,92.70
2018-11-03T02:17:31.261Z,92.50
2018-11-03T02:20:00.190Z,92.50
2018-11-03T02:22:29.060Z,92.70
2018-11-03T02:24:57.765Z,92.80
2018-11-03T02:27:26.676Z,92.50
2018-11-03T02:29:55.130Z,92.50
2018-11-03T02:32:24.649Z,92.50
2018-11-03T02:34:53.014Z,92.50
2018-11-03T02:37:21.754Z,92.40
2018-11-03T02:39:50.311Z,92.40
2018-11-03T02:42:19.476Z,92.40
2018-11-03T02:44:48.886Z,92.40
2018-11-03T02:47:18.291Z,92.70
2018-11-03T02:49:46.666Z,92.40
2018-11-03T02:52:15.816Z,92.40
2018-11-03T02:54:44.836Z,92.40
2018-11-03T02:57:13.139Z,92.40
2018-11-03T02:59:42.171Z,92.70
2018-11-03T03:02:11.529Z,92.40
2018-11-03T03:04:40.797Z,92.40
2018-11-03T03:07:10.278Z,92.40
2018-11-03T03:09:38.711Z,92.40
2018-11-03T03:12:07.615Z,92.40
2018-11-03T03:14:36.809Z,92.40
2018-11-03T03:17:06.814Z,92.40
2018-11-03T03:19:37.458Z,92.40
2018-11-03T03:22:06.168Z,92.50
2018-11-03T03:24:36.012Z,92.40
2018-11-03T03:27:06.649Z,92.50
2018-11-03T03:29:37.076Z,92.40
2018-11-03T03:32:06.103Z,92.40
2018-11-03T03:34:35.290Z,92.40
2018-11-03T03:37:04.957Z,92.40
2018-11-03T03:39:34.934Z,92.40
2018-11-03T03:42:03.666Z,92.30
2018-11-03T03:44:32.337Z,92.20
2018-11-03T03:47:01.296Z,92.10
2018-11-03T03:49:30.173Z,92.10
2018-11-03T03:51:59.492Z,92.10
2018-11-03T03:54:29.198Z,92.00
2018-11-03T03:56:58.357Z,92.00
2018-11-03T03:59:27.331Z,91.70
2018-11-03T04:01:56.171Z,91.70
2018-11-03T04:04:25.164Z,91.70
2018-11-03T04:06:53.536Z,92.10
2018-11-03T04:09:22.062Z,92.30
2018-11-03T04:11:51.080Z,92.20
2018-11-03T04:14:21.442Z,92.20
2018-11-03T04:16:51.531Z,92.00
2018-11-03T04:19:20.489Z,92.10
2018-11-03T04:21:50.465Z,92.30
2018-11-03T04:24:20.736Z,92.30
2018-11-03T04:26:49.867Z,92.20
2018-11-03T04:29:19.403Z,91.90
2018-11-03T04:31:48.099Z,91.50
2018-11-03T04:34:17.441Z,91.60
2018-11-03T04:36:46.005Z,91.60
2018-11-03T04:39:15.621Z,91.80
2018-11-03T04:41:44.173Z,91.90
2018-11-03T04:44:13.517Z,92.00
2018-11-03T04:46:43.031Z,92.00
2018-11-03T04:49:11.763Z,91.90
2018-11-03T04:51:40.457Z,91.90
2018-11-03T04:54:09.300Z,91.90
2018-11-03T04:56:38.031Z,92.10
2018-11-03T04:59:06.805Z,92.10
2018-11-03T05:01:35.259Z,91.60
2018-11-03T05:04:03.729Z,91.50
2018-11-03T05:06:32.367Z,91.40
2018-11-03T05:09:00.733Z,91.60
2018-11-03T05:11:29.165Z,91.70
2018-11-03T05:13:57.604Z,91.50
2018-11-03T05:16:26.176Z,91.40
2018-11-03T05:18:54.775Z,91.50
2018-11-03T05:21:24.253Z,91.50
2018-11-03T05:23:53.681Z,91.60
2018-11-03T05:26:22.760Z,91.70
2018-11-03T05:28:51.220Z,91.00
2018-11-03T05:31:21.496Z,90.90
2018-11-03T05:33:49.953Z,91.20
2018-11-03T05:36:18.948Z,91.40
2018-11-03T05:38:48.506Z,91.10
2018-11-03T05:41:16.821Z,91.40
2018-11-03T05:43:45.212Z,91.80
2018-11-03T05:46:13.832Z,92.00
2018-11-03T05:48:42.169Z,91.90
2018-11-03T05:51:10.566Z,92.20
2018-11-03T05:53:39.118Z,92.10
2018-11-03T05:56:07.481Z,92.10
2018-11-03T05:58:36.201Z,91.80
2018-11-03T06:01:04.956Z,91.80
2018-11-03T06:03:33.441Z,91.60
2018-11-03T06:06:01.935Z,91.40
2018-11-03T06:08:30.375Z,91.30
2018-11-03T06:10:58.696Z,91.20
2018-11-03T06:13:27.295Z,91.20
2018-11-03T06:15:55.687Z,91.40
2018-11-03T06:18:24.244Z,91.40
2018-11-03T06:20:52.729Z,91.50
2018-11-03T06:23:21.384Z,91.60
2018-11-03T06:25:50.052Z,91.50
2018-11-03T06:28:18.798Z,91.70
2018-11-03T06:30:47.268Z,91.80
2018-11-03T06:33:15.792Z,91.60
2018-11-03T06:35:44.334Z,91.50
2018-11-03T06:38:13.454Z,91.50
2018-11-03T06:40:42.113Z,91.50
2018-11-03T06:43:10.665Z,91.40
2018-11-03T06:45:39.236Z,91.30
2018-11-03T06:48:07.732Z,91.50
2018-11-03T06:50:36.113Z,92.00
2018-11-03T06:53:04.620Z,92.40
2018-11-03T06:55:33.100Z,92.40
2018-11-03T06:58:01.922Z,92.40
2018-11-03T07:00:30.781Z,92.50
2018-11-03T07:02:59.747Z,92.80
2018-11-03T07:05:29.074Z,93.00
2018-11-03T07:07:58.612Z,93.10
2018-11-03T07:10:27.613Z,93.10
2018-11-03T07:12:56.402Z,93.70
2018-11-03T07:15:25.053Z,95.20
2018-11-03T07:17:54.368Z,95.80
2018-11-03T07:20:23.873Z,94.80
2018-11-03T07:22:53.126Z,95.80
2018-11-03T07:25:21.944Z,97.10
2018-11-03T07:27:50.443Z,96.80
2018-11-03T07:30:18.893Z,98.30
2018-11-03T07:32:47.964Z,98.60
2018-11-03T07:35:16.581Z,98.70
2018-11-03T07:37:46.324Z,99.10
2018-11-03T07:40:14.791Z,97.90
2018-11-03T07:42:43.401Z,94.50
2018-11-03T07:45:13.027Z,91.30
2018-11-03T07:47:42.269Z,78.00
2018-11-03T07:50:12.729Z,73.80
2018-11-03T07:52:42.146Z,51.80
2018-11-03T07:55:12.414Z,36.90
2018-11-03T07:57:42.953Z,33.50
2018-11-03T08:00:13.055Z,36.10
2018-11-03T08:02:43.073Z,34.10
2018-11-03T08:05:13.102Z,36.60
2018-11-03T08:07:44.413Z,37.60
2018-11-03T08:10:13.949Z,34.00
2018-11-03T08:12:43.280Z,35.50
2018-11-03T08:15:12.630Z,35.50
2018-11-03T08:17:42.578Z,37.60
2018-11-03T08:20:12.312Z,35.20
2018-11-03T08:22:42.730Z,37.90
2018-11-03T08:25:12.388Z,46.20
2018-11-03T08:27:41.741Z,46.00
2018-11-03T08:30:15.630Z,39.40
2018-11-03T08:32:45.038Z,28.90
2018-11-03T08:35:14.505Z,24.50
2018-11-03T08:37:43.867Z,30.60
2018-11-03T08:40:14.065Z,35.50
2018-11-03T08:42:42.699Z,35.80
2018-11-03T08:45:11.955Z,35.90
2018-11-03T08:47:41.163Z,35.80
2018-11-03T08:50:13.847Z,34.80
2018-11-03T08:52:42.810Z,35.60
2018-11-03T08:55:13.908Z,32.50
2018-11-03T08:57:43.322Z,28.20
2018-11-03T09:00:13.796Z,32.00
2018-11-03T09:02:43.112Z,35.20
2018-11-03T09:05:14.550Z,34.40
2018-11-03T09:07:43.213Z,37.10
2018-11-03T09:10:13.276Z,31.30
2018-11-03T09:12:43.046Z,33.20
2018-11-03T09:15:12.885Z,30.00
2018-11-03T09:17:42.448Z,32.50
2018-11-03T09:20:12.748Z,30.80
2018-11-03T09:22:41.965Z,27.30
2018-11-03T09:25:12.059Z,26.90
2018-11-03T09:27:41.810Z,28.70
2018-11-03T09:30:13.338Z,35.40
2018-11-03T09:32:42.378Z,35.00
2018-11-03T09:35:11.860Z,35.20
2018-11-03T09:37:40.631Z,34.00
2018-11-03T09:40:12.695Z,36.10
2018-11-03T09:42:42.300Z,35.90
2018-11-03T09:45:12.439Z,36.20
2018-11-03T09:47:42.945Z,38.30
2018-11-03T09:50:13.641Z,37.50
2018-11-03T09:52:42.797Z,36.30
2018-11-03T09:55:17.837Z,35.20
2018-11-03T09:57:46.714Z,38.20
2018-11-03T10:00:16.409Z,37.20
2018-11-03T10:02:45.154Z,33.90
2018-11-03T10:05:14.620Z,32.50
2018-11-03T10:07:43.434Z,36.70
2018-11-03T10:10:16.845Z,38.30
2018-11-03T10:12:45.578Z,41.90
2018-11-03T10:15:16.482Z,35.40
2018-11-03T10:17:45.786Z,34.10
2018-11-03T10:20:16.319Z,33.80
2018-11-03T10:22:49.043Z,33.90
2018-11-03T10:25:19.211Z,35.80
2018-11-03T10:27:52.145Z,36.70
2018-11-03T10:30:20.842Z,37.10
2018-11-03T10:32:49.730Z,35.20
2018-11-03T10:35:18.265Z,35.20
2018-11-03T10:37:46.982Z,34.70
2018-11-03T10:40:18.338Z,34.10
2018-11-03T10:42:52.905Z,37.00
2018-11-03T10:45:22.077Z,35.80
2018-11-03T10:47:51.512Z,40.40
2018-11-03T10:50:20.567Z,39.00
2018-11-03T10:52:49.027Z,40.30
2018-11-03T10:55:19.262Z,39.50
2018-11-03T10:57:47.796Z,36.60
2018-11-03T11:00:22.577Z,40.00
2018-11-03T11:02:57.104Z,39.50
2018-11-03T11:05:34.347Z,38.80
2018-11-03T11:08:07.661Z,39.90
2018-11-03T11:10:40.238Z,43.20
2018-11-03T11:13:14.900Z,44.50
2018-11-03T11:15:44.823Z,49.90
2018-11-03T11:18:13.788Z,46.80
2018-11-03T11:20:45.640Z,46.60
2018-11-03T11:23:14.577Z,48.40
2018-11-03T11:25:43.883Z,49.80
2018-11-03T11:28:12.382Z,47.50
2018-11-03T11:30:42.822Z,48.00
2018-11-03T11:33:15.669Z,48.00
2018-11-03T11:35:45.998Z,47.50
2018-11-03T11:38:15.201Z,50.10
2018-11-03T11:40:46.593Z,49.30
2018-11-03T11:43:16.412Z,49.70
2018-11-03T11:45:45.163Z,49.40
2018-11-03T11:48:19.000Z,51.10
2018-11-03T11:50:47.863Z,50.80
2018-11-03T11:53:17.905Z,50.60
2018-11-03T11:55:47.711Z,46.90
2018-11-03T11:58:22.334Z,46.10
2018-11-03T12:00:51.479Z,46.90
2018-11-03T12:03:20.554Z,44.90
2018-11-03T12:05:49.138Z,45.30
2018-11-03T12:08:21.276Z,44.10
2018-11-03T12:10:50.415Z,42.80
2018-11-03T12:13:19.388Z,41.80
2018-11-03T12:15:56.314Z,42.70
2018-11-03T12:18:25.817Z,43.50
2018-11-03T12:20:54.819Z,40.60
2018-11-03T12:23:25.080Z,41.40
2018-11-03T12:25:54.394Z,34.70
2018-11-03T12:28:22.960Z,33.00
2018-11-03T12:30:51.542Z,36.60
2018-11-03T12:33:20.338Z,37.70
2018-11-03T12:35:49.285Z,37.80
2018-11-03T12:38:17.791Z,38.00
2018-11-03T12:40:49.594Z,35.40
2018-11-03T12:43:18.409Z,33.50
2018-11-03T12:45:48.227Z,36.00
2018-11-03T12:48:18.945Z,36.80
2018-11-03T12:50:47.726Z,35.70
2018-11-03T12:53:17.390Z,32.10
2018-11-03T12:55:46.508Z,36.60
2018-11-03T12:58:15.091Z,35.90
2018-11-03T13:00:44.625Z,36.50
2018-11-03T13:03:13.169Z,36.00
2018-11-03T13:05:42.368Z,34.00
2018-11-03T13:08:11.088Z,35.40
2018-11-03T13:10:43.110Z,33.70
2018-11-03T13:13:17.583Z,32.50
2018-11-03T13:15:47.144Z,34.10
2018-11-03T13:18:17.833Z,35.30
2018-11-03T13:20:47.894Z,35.20
2018-11-03T13:23:17.441Z,30.60
2018-11-03T13:25:47.235Z,27.90
2018-11-03T13:28:16.935Z,29.50
2018-11-03T13:30:46.341Z,29.40
2018-11-03T13:33:16.287Z,29.10
2018-11-03T13:35:45.633Z,30.30
2018-11-03T13:38:16.429Z,30.50
2018-11-03T13:40:45.165Z,32.20
2018-11-03T13:43:13.902Z,30.80
2018-11-03T13:45:42.510Z,31.30
2018-11-03T13:48:11.296Z,30.70
2018-11-03T13:50:40.793Z,29.30
2018-11-03T13:53:09.337Z,27.80
2018-11-03T13:55:39.111Z,28.50
2018-11-03T13:58:07.820Z,27.90
2018-11-03T14:00:38.280Z,26.70
2018-11-03T14:03:08.524Z,23.20
2018-11-03T14:05:37.833Z,19.60
2018-11-03T14:08:06.730Z,16.60
2018-11-03T14:10:36.128Z,15.50
2018-11-03T14:13:06.627Z,15.80
2018-11-03T14:15:36.077Z,15.50
2018-11-03T14:18:04.821Z,15.00
2018-11-03T14:20:33.516Z,12.20
2018-11-03T14:23:02.287Z,10.10
2018-11-03T14:25:31.361Z,10.80
2018-11-03T14:28:02.172Z,10.70
2018-11-03T14:30:30.875Z,10.70
2018-11-03T14:33:02.532Z,10.90
2018-11-03T14:35:35.267Z,10.00
2018-11-03T14:38:06.672Z,11.10
2018-11-03T14:40:36.550Z,13.00
2018-11-03T14:43:06.330Z,15.20
2018-11-03T14:45:37.908Z,20.40
2018-11-03T14:48:07.352Z,24.90
2018-11-03T14:50:37.054Z,26.70
2018-11-03T14:53:06.412Z,27.40
2018-11-03T14:55:35.843Z,26.60
2018-11-03T14:58:06.083Z,28.60
2018-11-03T15:00:36.727Z,29.20
2018-11-03T15:03:10.288Z,30.00
2018-11-03T15:05:41.356Z,30.00
2018-11-03T15:08:10.710Z,31.70
2018-11-03T15:10:43.443Z,33.10
2018-11-03T15:13:12.111Z,34.40
2018-11-03T15:15:41.813Z,36.00
2018-11-03T15:18:15.850Z,37.30
2018-11-03T15:20:46.534Z,38.20
2018-11-03T15:23:16.644Z,39.00
2018-11-03T15:25:47.664Z,39.70
2018-11-03T15:28:19.850Z,40.60
2018-11-03T15:30:49.640Z,42.40
2018-11-03T15:33:20.064Z,43.50
2018-11-03T15:35:49.284Z,43.90
2018-11-03T15:38:19.032Z,45.30
2018-11-03T15:40:47.948Z,45.40
2018-11-03T15:43:18.079Z,45.40
2018-11-03T15:45:48.260Z,46.40
2018-11-03T15:48:17.184Z,47.40
2018-11-03T15:50:52.007Z,48.40
2018-11-03T15:53:20.864Z,49.90
2018-11-03T15:55:51.550Z,50.20
2018-11-03T15:58:20.996Z,51.30
2018-11-03T16:00:50.687Z,52.40
2018-11-03T16:03:19.230Z,54.00
2018-11-03T16:05:48.011Z,54.80
2018-11-03T16:08:18.034Z,56.20
2018-11-03T16:10:47.915Z,56.00
2018-11-03T16:13:17.044Z,56.20
2018-11-03T16:15:47.382Z,56.60
2018-11-03T16:18:17.074Z,58.20
2018-11-03T16:20:47.921Z,59.50
2018-11-03T16:23:16.610Z,59.80
2018-11-03T16:25:45.632Z,60.50
2018-11-03T16:28:14.510Z,62.00
2018-11-03T16:30:45.656Z,63.20
2018-11-03T16:33:15.459Z,64.00
2018-11-03T16:35:45.161Z,64.70
2018-11-03T16:38:13.902Z,66.20
2018-11-03T16:40:42.422Z,65.70
2018-11-03T16:43:11.676Z,66.10
2018-11-03T16:45:40.398Z,67.00
2018-11-03T16:48:09.472Z,67.80
2018-11-03T16:50:38.247Z,68.00
2018-11-03T16:53:07.840Z,68.20
2018-11-03T16:55:39.086Z,68.50
2018-11-03T16:58:07.682Z,68.60
2018-11-03T17:00:37.596Z,69.90
2018-11-03T17:03:07.133Z,70.50
2018-11-03T17:05:36.094Z,71.20
2018-11-03T17:08:05.481Z,72.10
2018-11-03T17:10:34.175Z,72.30
2018-11-03T17:13:03.114Z,72.90
2018-11-03T17:15:31.743Z,73.30
2018-11-03T17:18:02.319Z,74.60
2018-11-03T17:20:30.900Z,75.80
2018-11-03T17:22:59.431Z,77.30
2018-11-03T17:25:27.956Z,77.30
2018-11-03T17:27:57.832Z,77.30
2018-11-03T17:30:26.774Z,78.00
2018-11-03T17:32:59.192Z,78.20
2018-11-03T17:35:28.124Z,79.00
2018-11-03T17:37:56.597Z,79.00
2018-11-03T17:40:25.356Z,79.70
2018-11-03T17:42:54.263Z,80.30
2018-11-03T17:45:22.776Z,78.90
2018-11-03T17:47:51.377Z,77.60
2018-11-03T17:50:20.462Z,77.20
2018-11-03T17:52:48.917Z,76.90
2018-11-03T17:55:19.076Z,75.60
2018-11-03T17:57:47.807Z,74.50
2018-11-03T18:00:17.571Z,75.30
2018-11-03T18:02:47.124Z,75.90
2018-11-03T18:05:16.361Z,76.90
2018-11-03T18:07:44.810Z,77.60
2018-11-03T18:10:15.270Z,78.60
2018-11-03T18:12:44.708Z,79.60
2018-11-03T18:15:13.837Z,80.10
2018-11-03T18:17:42.907Z,81.30
2018-11-03T18:20:11.717Z,81.30
2018-11-03T18:22:40.633Z,81.30
2018-11-03T18:25:11.545Z,81.50
2018-11-03T18:33:08.968Z,84.00
2018-11-03T18:35:38.452Z,84.50
2018-11-03T18:38:08.544Z,84.70
2018-11-03T18:40:38.266Z,85.60
2018-11-03T18:43:08.042Z,86.50
2018-11-03T18:45:38.035Z,85.90
2018-11-03T18:48:07.301Z,86.80
2018-11-03T18:50:36.043Z,87.30
2018-11-03T18:53:05.134Z,87.70
2018-11-03T18:55:35.401Z,88.70
2018-11-03T18:58:12.627Z,89.00
2018-11-03T19:00:41.599Z,89.50
2018-11-03T19:03:10.269Z,88.00
2018-11-03T19:05:40.633Z,86.70
2018-11-03T19:08:09.127Z,86.80
2018-11-03T19:10:37.820Z,87.30
2018-11-03T19:13:07.720Z,86.60
2018-11-03T19:15:36.514Z,86.20
2018-11-03T19:18:06.609Z,87.20
2018-11-03T19:20:36.821Z,87.30
2018-11-03T19:23:05.951Z,87.30
2018-11-03T19:25:34.619Z,87.30
2018-11-03T19:28:06.613Z,87.20
2018-11-03T19:30:35.537Z,87.60
2018-11-03T19:33:04.116Z,88.10
2018-11-03T19:35:32.825Z,88.60
2018-11-03T19:38:01.514Z,89.10
2018-11-03T19:40:31.024Z,90.00
2018-11-03T19:42:59.655Z,89.80
2018-11-03T19:45:30.144Z,90.10
2018-11-03T19:47:58.680Z,90.00
2018-11-03T19:50:27.979Z,90.20
2018-11-03T19:52:56.531Z,89.90
2018-11-03T19:55:25.681Z,89.60
2018-11-03T19:57:54.011Z,89.10
2018-11-03T20:00:23.132Z,89.10
2018-11-03T20:02:52.222Z,89.50
2018-11-03T20:05:23.292Z,89.10
2018-11-03T20:07:52.831Z,89.10
2018-11-03T20:10:21.970Z,89.00
2018-11-03T20:12:51.603Z,89.40
2018-11-03T20:15:21.169Z,89.80
2018-11-03T20:17:51.290Z,89.90
2018-11-03T20:20:19.783Z,90.20
2018-11-03T20:22:48.224Z,90.50
2018-11-03T20:25:17.211Z,90.80
2018-11-03T20:27:45.777Z,91.10
2018-11-03T20:30:16.471Z,91.20
2018-11-03T20:32:45.833Z,91.10
2018-11-03T20:35:18.992Z,91.20
2018-11-03T20:37:48.026Z,91.00
2018-11-03T20:40:17.011Z,91.10
2018-11-03T20:42:46.499Z,91.10
2018-11-03T20:45:19.056Z,91.20
2018-11-03T20:47:56.367Z,91.30
2018-11-03T20:50:28.301Z,91.30
2018-11-03T20:53:02.531Z,91.40
2018-11-03T20:55:31.153Z,91.50
2018-11-03T20:57:59.791Z,91.30
2018-11-03T21:00:28.212Z,91.20
2018-11-03T21:02:57.794Z,91.20
2018-11-03T21:05:30.451Z,91.10
2018-11-03T21:08:00.536Z,90.80
2018-11-03T21:10:30.215Z,91.00
2018-11-03T21:13:02.910Z,91.00
2018-11-03T21:15:35.874Z,91.20
2018-11-03T21:18:06.216Z,91.00
2018-11-03T21:20:35.993Z,91.10
2018-11-03T21:23:07.185Z,90.90
2018-11-03T21:25:38.450Z,91.10
2018-11-03T21:28:10.351Z,91.30
2018-11-03T21:30:44.987Z,91.30
2018-11-03T21:33:14.470Z,91.40
2018-11-03T21:35:42.632Z,91.50
2018-11-03T21:38:13.078Z,91.50
2018-11-03T21:40:41.390Z,91.60
2018-11-03T21:43:11.911Z,92.10
2018-11-03T21:45:40.402Z,91.80
2018-11-03T21:48:08.922Z,91.90
2018-11-03T21:50:37.438Z,91.70
2018-11-03T21:53:06.011Z,91.60
2018-11-03T21:55:34.682Z,91.60
2018-11-03T21:58:04.475Z,91.70
2018-11-03T22:00:33.057Z,91.40
2018-11-03T22:03:01.489Z,91.60
2018-11-03T22:05:30.277Z,91.50
2018-11-03T22:07:58.823Z,91.70
2018-11-03T22:10:27.530Z,91.70
2018-11-03T22:12:56.031Z,91.60
2018-11-03T22:15:24.467Z,91.80
2018-11-03T22:17:52.986Z,91.90
2018-11-03T22:20:21.403Z,92.10
2018-11-03T22:22:49.995Z,92.20
2018-11-03T22:25:19.157Z,92.10
2018-11-03T22:27:47.825Z,92.20
2018-11-03T22:30:16.527Z,92.20
2018-11-03T22:32:45.872Z,92.40
2018-11-03T22:35:14.399Z,92.40
2018-11-03T22:37:43.005Z,92.40
2018-11-03T22:40:11.540Z,92.60
2018-11-03T22:42:43.114Z,92.60
2018-11-03T22:45:11.852Z,92.70
2018-11-03T22:47:40.548Z,92.70
2018-11-03T22:50:08.987Z,92.80
2018-11-03T22:52:37.554Z,93.00
2018-11-03T22:55:06.799Z,93.10
2018-11-03T22:57:35.721Z,93.00
2018-11-03T23:00:05.125Z,93.00
2018-11-03T23:02:33.626Z,93.00
2018-11-03T23:05:02.344Z,93.00
2018-11-03T23:07:31.221Z,93.00
2018-11-03T23:10:00.006Z,93.10
2018-11-03T23:12:29.488Z,93.30
2018-11-03T23:14:57.927Z,93.30
2018-11-03T23:17:26.360Z,93.40
2018-11-03T23:19:54.887Z,93.50
2018-11-03T23:22:23.531Z,93.60
2018-11-03T23:24:52.044Z,93.60
2018-11-03T23:27:20.533Z,93.70
2018-11-03T23:29:49.089Z,93.70
2018-11-03T23:32:17.817Z,93.70
2018-11-03T23:34:46.518Z,93.70
2018-11-03T23:37:15.024Z,93.80
2018-11-03T23:39:43.559Z,93.80
2018-11-03T23:42:11.993Z,93.80
2018-11-03T23:44:40.639Z,93.90
2018-11-03T23:47:09.042Z,94.00
2018-11-03T23:49:37.717Z,94.10
2018-11-03T23:52:06.265Z,94.10
2018-11-03T23:54:34.761Z,94.20
2018-11-03T23:57:03.285Z,94.20
2018-11-03T23:59:32.000Z,94.20
